Time;durP1;ratioP1;P1;durP2;ratioP2;P2;SDS_P1;SDS_P2;PMS_P1;PMS_P2;Temp;Humidity;BMP_temperature;BMP_pressure;BME280_temperature;BME280_humidity;BME280_pressure;Samples;Min_cycle;Max_cycle;Signal;HPM_P1;HPM_P2
2023/03/28 00:00:07;;;;;;;16.05;2.20;;;2.10;99.90;;;;;;5106511;27;20035;-70
2023/03/28 00:02:32;;;;;;;11.40;1.77;;;1.80;99.90;;;;;;5102226;27;20039;-70
2023/03/28 00:04:58;;;;;;;14.23;2.35;;;1.60;99.90;;;;;;5105048;27;20591;-70
2023/03/28 00:07:26;;;;;;;11.63;2.35;;;1.40;99.90;;;;;;5106723;27;20431;-70
2023/03/28 00:09:51;;;;;;;15.07;2.47;;;1.30;99.90;;;;;;5108646;27;20031;-70
2023/03/28 00:12:17;;;;;;;11.73;1.73;;;1.30;99.90;;;;;;5106501;27;20634;-70
2023/03/28 00:14:45;;;;;;;10.55;2.17;;;1.20;99.90;;;;;;5103636;27;20047;-70
2023/03/28 00:17:11;;;;;;;12.40;2.15;;;1.20;99.90;;;;;;5104134;27;20164;-70
2023/03/28 00:19:39;;;;;;;12.60;1.95;;;1.20;99.90;;;;;;5104410;27;20448;-70
2023/03/28 00:22:05;;;;;;;12.75;2.10;;;1.10;99.90;;;;;;5102474;27;20169;-70
2023/03/28 00:24:34;;;;;;;13.27;1.95;;;1.20;99.90;;;;;;5105931;27;20039;-69
2023/03/28 00:27:00;;;;;;;12.65;2.50;;;1.10;99.90;;;;;;5103810;27;20049;-70
2023/03/28 00:29:28;;;;;;;9.88;2.00;;;1.10;99.90;;;;;;5105491;27;20043;-70
2023/03/28 00:31:54;;;;;;;12.85;2.00;;;1.10;99.90;;;;;;5104904;27;20124;-70
2023/03/28 00:34:20;;;;;;;15.05;2.58;;;1.10;99.90;;;;;;5105752;27;20117;-70
2023/03/28 00:36:46;;;;;;;11.07;2.00;;;1.10;99.90;;;;;;5104727;27;20381;-70
2023/03/28 00:39:12;;;;;;;10.43;1.73;;;1.00;99.90;;;;;;5107513;27;20047;-70
2023/03/28 00:41:41;;;;;;;18.52;2.45;;;1.00;99.90;;;;;;5106233;27;20042;-70
2023/03/28 00:44:44;;;;;;;12.55;1.88;;;0.90;99.90;;;;;;5107921;27;20039;-70
2023/03/28 00:47:37;;;;;;;11.13;1.88;;;0.90;99.90;;;;;;5104948;27;20074;-70
2023/03/28 00:50:26;;;;;;;15.43;2.10;;;0.90;99.90;;;;;;5105530;27;20052;-71
2023/03/28 00:53:00;;;;;;;12.07;2.22;;;0.90;99.90;;;;;;5107092;27;20488;-70
2023/03/28 00:55:36;;;;;;;11.00;2.03;;;0.90;99.90;;;;;;5104270;27;20038;-70
2023/03/28 00:58:06;;;;;;;10.07;2.08;;;0.90;99.90;;;;;;5101454;27;20300;-70
2023/03/28 01:00:33;;;;;;;6.38;1.80;;;0.90;99.90;;;;;;5118910;27;20122;-71
2023/03/28 01:03:01;;;;;;;14.60;1.98;;;0.90;99.90;;;;;;5103949;27;20047;-70
2023/03/28 01:05:31;;;;;;;11.43;2.03;;;0.80;99.90;;;;;;5119253;27;20043;-70
2023/03/28 01:08:11;;;;;;;15.38;2.10;;;0.80;99.90;;;;;;5104975;27;20043;-70
2023/03/28 01:10:37;;;;;;;11.27;1.70;;;0.90;99.90;;;;;;5097747;27;20036;-70
2023/03/28 01:13:04;;;;;;;14.23;1.98;;;0.90;99.90;;;;;;5101159;27;20051;-70
2023/03/28 01:15:29;;;;;;;14.93;2.15;;;1.00;99.90;;;;;;5106126;27;20375;-70
2023/03/28 01:18:01;;;;;;;10.68;2.83;;;1.10;99.90;;;;;;5098329;27;20046;-70
2023/03/28 01:20:50;;;;;;;14.35;1.88;;;1.10;99.90;;;;;;5103191;27;20577;-70
2023/03/28 01:24:01;;;;;;;10.32;1.75;;;1.10;99.90;;;;;;5102927;27;20047;-70
2023/03/28 01:26:48;;;;;;;11.00;2.08;;;1.10;99.90;;;;;;5103195;27;20035;-70
2023/03/28 01:29:53;;;;;;;13.48;2.55;;;1.00;99.90;;;;;;5105915;27;20054;-70
2023/03/28 01:32:37;;;;;;;16.05;2.00;;;1.00;99.90;;;;;;5103510;27;20079;-70
2023/03/28 01:35:33;;;;;;;12.52;1.90;;;1.10;99.90;;;;;;5104724;27;20045;-70
2023/03/28 01:38:24;;;;;;;11.10;1.83;;;1.10;99.90;;;;;;5103128;27;20031;-70
2023/03/28 01:41:12;;;;;;;13.43;2.08;;;1.10;99.90;;;;;;5104959;27;20660;-70
2023/03/28 01:43:51;;;;;;;14.38;2.17;;;1.10;99.90;;;;;;5103785;27;20046;-71
2023/03/28 01:46:37;;;;;;;10.20;1.80;;;1.10;99.90;;;;;;5104252;27;20421;-70
2023/03/28 01:49:31;;;;;;;10.45;1.55;;;1.10;99.90;;;;;;5100787;28;20051;-70
2023/03/28 01:52:07;;;;;;;14.57;2.47;;;1.10;99.90;;;;;;5090596;27;20134;-70
2023/03/28 01:54:49;;;;;;;12.48;1.92;;;1.10;99.90;;;;;;5103716;27;20047;-70
2023/03/28 01:57:40;;;;;;;13.17;2.10;;;1.00;99.90;;;;;;5102597;28;20043;-70
2023/03/28 02:00:11;;;;;;;13.88;2.28;;;1.10;99.90;;;;;;5100608;27;20039;-70
2023/03/28 02:02:42;;;;;;;12.15;2.08;;;1.10;99.90;;;;;;5085559;28;20043;-70
2023/03/28 02:05:12;;;;;;;14.48;2.50;;;1.10;99.90;;;;;;5100540;28;20039;-70
2023/03/28 02:07:42;;;;;;;17.52;2.03;;;1.10;99.90;;;;;;5104225;28;20047;-70
2023/03/28 02:10:10;;;;;;;14.00;1.85;;;1.10;99.90;;;;;;5104039;27;20043;-70
2023/03/28 02:12:39;;;;;;;12.98;2.13;;;1.00;99.90;;;;;;5105926;28;20079;-70
2023/03/28 02:15:09;;;;;;;17.90;2.22;;;1.00;99.90;;;;;;5104489;28;20043;-70
2023/03/28 02:17:42;;;;;;;14.13;2.53;;;1.00;99.90;;;;;;5099447;27;20043;-70
2023/03/28 02:20:13;;;;;;;15.00;1.70;;;0.90;99.90;;;;;;5100768;27;20043;-70
2023/03/28 02:23:00;;;;;;;18.13;2.20;;;0.90;99.90;;;;;;5103628;28;20039;-70
2023/03/28 02:25:26;;;;;;;12.50;2.15;;;0.90;99.90;;;;;;5105176;27;20082;-70
2023/03/28 02:27:56;;;;;;;11.93;2.35;;;0.90;99.90;;;;;;5103719;28;20039;-70
2023/03/28 02:30:22;;;;;;;14.00;2.38;;;0.90;99.90;;;;;;5104412;28;20043;-70
2023/03/28 02:32:49;;;;;;;10.05;2.13;;;0.90;99.90;;;;;;5100060;28;20036;-71
2023/03/28 02:35:16;;;;;;;14.13;2.17;;;0.90;99.90;;;;;;5096209;28;20396;-70
2023/03/28 02:37:54;;;;;;;11.90;2.00;;;0.90;99.90;;;;;;5099505;28;20043;-70
2023/03/28 02:40:31;;;;;;;11.50;2.20;;;1.00;99.90;;;;;;5099802;27;20386;-70
2023/03/28 02:43:13;;;;;;;18.17;2.83;;;1.00;99.90;;;;;;5102201;28;20046;-70
2023/03/28 02:45:49;;;;;;;16.88;2.15;;;0.90;99.90;;;;;;5100943;28;20100;-71
2023/03/28 02:48:45;;;;;;;16.63;2.53;;;0.90;99.90;;;;;;5097050;28;20119;-70
2023/03/28 02:51:24;;;;;;;14.68;2.00;;;0.90;99.90;;;;;;5105261;27;20043;-71
2023/03/28 02:53:54;;;;;;;11.35;2.13;;;0.90;99.90;;;;;;5106876;27;20035;-70
2023/03/28 02:56:30;;;;;;;14.77;2.03;;;0.90;99.90;;;;;;5105894;27;20039;-70
2023/03/28 02:59:03;;;;;;;17.85;2.35;;;1.00;99.90;;;;;;5102897;27;20046;-71
2023/03/28 03:01:29;;;;;;;15.55;2.22;;;1.00;99.90;;;;;;5104932;27;20044;-70
2023/03/28 03:03:56;;;;;;;12.77;1.83;;;1.00;99.90;;;;;;5098834;27;20039;-71
2023/03/28 03:06:22;;;;;;;8.32;1.75;;;1.00;99.90;;;;;;5107158;27;20096;-71
2023/03/28 03:08:47;;;;;;;10.63;2.05;;;1.10;99.90;;;;;;5106511;27;20085;-71
2023/03/28 03:11:13;;;;;;;13.57;1.85;;;1.10;99.90;;;;;;5109136;27;20051;-70
2023/03/28 03:13:39;;;;;;;10.52;1.65;;;1.10;99.90;;;;;;5105158;27;20076;-70
2023/03/28 03:16:05;;;;;;;9.32;2.15;;;1.10;99.90;;;;;;5107040;27;20443;-70
2023/03/28 03:18:31;;;;;;;17.52;2.38;;;1.10;99.90;;;;;;5104426;27;20225;-71
2023/03/28 03:20:57;;;;;;;12.07;1.95;;;1.10;99.90;;;;;;5107479;27;20031;-70
2023/03/28 03:23:22;;;;;;;9.23;1.80;;;1.10;99.90;;;;;;5104133;27;20035;-71
2023/03/28 03:25:49;;;;;;;16.20;2.00;;;1.10;99.90;;;;;;5107276;27;20043;-71
2023/03/28 03:28:15;;;;;;;11.95;2.00;;;1.10;99.90;;;;;;5107610;27;20043;-70
2023/03/28 03:30:41;;;;;;;6.15;1.80;;;1.10;99.90;;;;;;5104344;27;20043;-70
2023/03/28 03:33:09;;;;;;;13.70;1.83;;;1.10;99.90;;;;;;5105889;27;20046;-71
2023/03/28 03:35:35;;;;;;;8.05;1.80;;;1.10;99.90;;;;;;5105547;27;20043;-70
2023/03/28 03:38:01;;;;;;;10.55;2.00;;;1.10;99.90;;;;;;5104979;27;20390;-70
2023/03/28 03:40:27;;;;;;;10.98;2.00;;;1.10;99.90;;;;;;5105505;27;20031;-70
2023/03/28 03:42:52;;;;;;;14.20;2.00;;;1.20;99.90;;;;;;5104527;27;20041;-70
2023/03/28 03:45:18;;;;;;;10.27;2.15;;;1.20;99.90;;;;;;5102511;27;20043;-70
2023/03/28 03:47:44;;;;;;;12.80;2.40;;;1.10;99.90;;;;;;5097537;27;20735;-70
2023/03/28 03:50:10;;;;;;;8.90;2.08;;;1.00;99.90;;;;;;5103547;27;20088;-70
2023/03/28 03:52:36;;;;;;;16.38;2.60;;;1.00;99.90;;;;;;5102513;27;20052;-70
2023/03/28 03:55:02;;;;;;;8.82;1.80;;;1.00;99.90;;;;;;5104271;27;20470;-70
2023/03/28 03:57:27;;;;;;;13.48;1.95;;;1.00;99.90;;;;;;5102389;27;20229;-70
2023/03/28 03:59:53;;;;;;;12.40;1.80;;;0.90;99.90;;;;;;5105414;27;20138;-71
2023/03/28 04:02:19;;;;;;;12.57;1.75;;;0.90;99.90;;;;;;5086731;27;20694;-70
2023/03/28 04:04:46;;;;;;;13.60;2.00;;;0.80;99.90;;;;;;5120876;27;20093;-70
2023/03/28 04:07:12;;;;;;;10.95;1.90;;;0.70;99.90;;;;;;5099475;27;20062;-71
2023/03/28 04:09:37;;;;;;;8.80;1.70;;;0.60;99.90;;;;;;5103447;27;20031;-70
2023/03/28 04:12:07;;;;;;;13.45;2.03;;;0.60;99.90;;;;;;5101619;27;20139;-70
2023/03/28 04:14:32;;;;;;;14.65;1.98;;;0.50;99.90;;;;;;5096647;27;20537;-70
2023/03/28 04:16:58;;;;;;;10.10;1.80;;;0.50;99.90;;;;;;5104140;27;20049;-70
2023/03/28 04:19:24;;;;;;;8.10;2.33;;;0.60;99.90;;;;;;5101432;27;20068;-70
2023/03/28 04:21:51;;;;;;;12.23;2.05;;;0.70;99.90;;;;;;5084819;27;20098;-70
2023/03/28 04:24:19;;;;;;;8.25;2.10;;;0.70;99.90;;;;;;5103250;27;20505;-70
2023/03/28 04:26:48;;;;;;;11.13;2.05;;;0.80;99.90;;;;;;5102557;27;20043;-70
2023/03/28 04:29:16;;;;;;;12.60;2.53;;;0.80;99.90;;;;;;5101945;27;20043;-70
2023/03/28 04:31:48;;;;;;;8.95;1.95;;;0.80;99.90;;;;;;5101493;27;20070;-71
2023/03/28 04:34:14;;;;;;;14.93;2.25;;;0.90;99.90;;;;;;5102868;27;20042;-71
2023/03/28 04:36:40;;;;;;;9.13;1.85;;;0.90;99.90;;;;;;5101195;27;20050;-71
2023/03/28 04:39:07;;;;;;;13.90;2.30;;;1.00;99.90;;;;;;5100702;27;20057;-71
2023/03/28 04:41:33;;;;;;;10.57;1.70;;;0.90;99.90;;;;;;5099412;27;20036;-71
2023/03/28 04:43:59;;;;;;;9.27;2.28;;;1.00;99.90;;;;;;5102616;27;20046;-71
2023/03/28 04:46:25;;;;;;;7.65;2.28;;;1.00;99.90;;;;;;5097158;27;20118;-70
2023/03/28 04:48:50;;;;;;;13.10;2.35;;;0.90;99.90;;;;;;5095228;27;20256;-71
2023/03/28 04:51:16;;;;;;;10.00;2.25;;;1.00;99.90;;;;;;5101225;27;20039;-71
2023/03/28 04:53:42;;;;;;;12.60;2.20;;;1.00;99.90;;;;;;5101225;27;20039;-71
2023/03/28 04:56:07;;;;;;;7.10;1.80;;;0.90;99.90;;;;;;5101478;27;20092;-71
2023/03/28 04:58:35;;;;;;;8.35;1.90;;;0.90;99.90;;;;;;5104241;27;20035;-71
2023/03/28 05:01:02;;;;;;;12.73;2.30;;;0.80;99.90;;;;;;5102197;27;20126;-71
2023/03/28 05:03:28;;;;;;;8.32;1.83;;;0.80;99.90;;;;;;5104748;27;20721;-71
2023/03/28 05:05:54;;;;;;;10.60;1.65;;;0.70;99.90;;;;;;5101006;27;20146;-71
2023/03/28 05:08:22;;;;;;;14.65;2.38;;;0.80;99.90;;;;;;5097710;27;20076;-71
2023/03/28 05:10:49;;;;;;;10.25;2.08;;;0.80;99.90;;;;;;5100277;27;20379;-70
2023/03/28 05:13:15;;;;;;;14.55;2.35;;;0.80;99.90;;;;;;5102490;27;20039;-70
2023/03/28 05:15:42;;;;;;;12.23;2.47;;;0.80;99.90;;;;;;5105583;28;20053;-70
2023/03/28 05:18:08;;;;;;;11.80;2.10;;;0.80;99.90;;;;;;5104679;27;20046;-70
2023/03/28 05:20:35;;;;;;;12.35;2.22;;;0.80;99.90;;;;;;5085573;27;20498;-70
2023/03/28 05:23:02;;;;;;;10.57;2.05;;;0.80;99.90;;;;;;5102948;27;20443;-70
2023/03/28 05:25:28;;;;;;;11.10;2.50;;;0.80;99.90;;;;;;5108067;27;20039;-70
2023/03/28 05:27:53;;;;;;;10.70;2.30;;;0.90;99.90;;;;;;5105588;27;20043;-70
2023/03/28 05:30:19;;;;;;;9.45;2.60;;;1.00;99.90;;;;;;5106247;27;20046;-71
2023/03/28 05:32:45;;;;;;;11.45;2.35;;;1.20;99.90;;;;;;5101461;27;20039;-71
2023/03/28 05:35:13;;;;;;;8.32;2.55;;;1.30;99.90;;;;;;5102160;27;20034;-70
2023/03/28 05:37:39;;;;;;;12.38;2.92;;;1.30;99.90;;;;;;5102070;28;20172;-70
2023/03/28 05:40:06;;;;;;;8.43;2.40;;;1.30;99.90;;;;;;5100893;28;20039;-70
2023/03/28 05:42:32;;;;;;;8.32;2.75;;;1.30;99.90;;;;;;5095551;28;20039;-70
2023/03/28 05:44:58;;;;;;;8.50;2.50;;;1.30;99.90;;;;;;5103007;28;20091;-70
2023/03/28 05:47:23;;;;;;;11.80;3.10;;;1.30;99.90;;;;;;5101166;28;20035;-70
2023/03/28 05:49:49;;;;;;;12.02;3.10;;;1.30;99.90;;;;;;5097710;27;20473;-71
2023/03/28 05:52:14;;;;;;;14.20;2.97;;;1.40;99.90;;;;;;5101831;27;20050;-70
2023/03/28 05:54:40;;;;;;;9.45;2.45;;;1.40;99.90;;;;;;5102738;27;20265;-71
2023/03/28 05:57:05;;;;;;;10.30;2.28;;;1.40;99.90;;;;;;5106827;28;20524;-70
2023/03/28 05:59:31;;;;;;;6.43;2.13;;;1.50;99.90;;;;;;5104204;28;20373;-71
2023/03/28 06:01:57;;;;;;;7.13;2.22;;;1.50;99.90;;;;;;5107714;27;20035;-71
2023/03/28 06:04:24;;;;;;;7.75;2.17;;;1.50;99.90;;;;;;5104303;27;20437;-70
2023/03/28 06:06:50;;;;;;;8.73;2.22;;;1.50;99.90;;;;;;5098415;27;20064;-70
2023/03/28 06:09:17;;;;;;;7.63;2.10;;;1.50;99.90;;;;;;5103052;28;20042;-71
2023/03/28 06:11:43;;;;;;;7.60;1.88;;;1.60;99.90;;;;;;5099803;27;20369;-70
2023/03/28 06:14:09;;;;;;;11.85;2.17;;;1.60;99.90;;;;;;5104850;28;20183;-70
2023/03/28 06:16:35;;;;;;;8.25;1.90;;;1.50;99.90;;;;;;5099191;27;20043;-71
2023/03/28 06:19:01;;;;;;;9.82;1.70;;;1.60;99.90;;;;;;5099652;27;20043;-71
2023/03/28 06:21:26;;;;;;;10.15;2.10;;;1.60;99.90;;;;;;5102561;27;20517;-70
2023/03/28 06:23:52;;;;;;;9.00;2.10;;;1.70;99.90;;;;;;5104769;27;20417;-71
2023/03/28 06:26:18;;;;;;;7.55;2.30;;;1.80;99.90;;;;;;5105505;28;20050;-71
2023/03/28 06:28:44;;;;;;;10.35;2.47;;;1.80;99.90;;;;;;5108736;27;20630;-70
2023/03/28 06:31:11;;;;;;;7.63;2.30;;;1.90;99.90;;;;;;5108899;27;20095;-71
2023/03/28 06:33:39;;;;;;;8.52;2.63;;;2.00;99.90;;;;;;5107964;27;20035;-70
2023/03/28 06:36:06;;;;;;;10.30;2.88;;;1.90;99.90;;;;;;5108565;27;20126;-70
2023/03/28 06:38:33;;;;;;;13.05;3.47;;;2.00;99.90;;;;;;5104053;27;20069;-70
2023/03/28 06:40:58;;;;;;;7.20;3.05;;;2.00;99.90;;;;;;5102856;27;20047;-71
2023/03/28 06:43:24;;;;;;;13.27;3.13;;;1.90;99.90;;;;;;5091637;27;20069;-71
2023/03/28 06:45:50;;;;;;;7.65;3.03;;;1.90;99.90;;;;;;5106311;27;20058;-71
2023/03/28 06:48:16;;;;;;;13.15;3.45;;;1.90;99.90;;;;;;5109795;27;20080;-71
2023/03/28 06:50:48;;;;;;;12.23;4.00;;;1.90;99.90;;;;;;5102257;27;20035;-70
2023/03/28 06:53:15;;;;;;;16.00;3.70;;;1.80;99.90;;;;;;5110570;27;20409;-71
2023/03/28 06:55:41;;;;;;;12.52;4.10;;;1.80;99.90;;;;;;5107552;27;20417;-71
2023/03/28 06:58:06;;;;;;;14.25;3.83;;;1.90;99.90;;;;;;5112863;27;20043;-71
2023/03/28 07:00:32;;;;;;;14.55;4.18;;;1.80;99.90;;;;;;5113789;27;20039;-71
2023/03/28 07:02:58;;;;;;;10.80;3.33;;;1.90;99.90;;;;;;5107223;27;20049;-71
2023/03/28 07:05:23;;;;;;;10.70;3.88;;;2.00;99.90;;;;;;5117190;27;20043;-71
2023/03/28 07:07:49;;;;;;;12.43;4.80;;;2.10;99.90;;;;;;5114023;27;20042;-71
2023/03/28 07:10:15;;;;;;;13.48;4.55;;;2.20;99.90;;;;;;5101098;27;20047;-71
2023/03/28 07:12:40;;;;;;;12.70;5.25;;;2.40;99.90;;;;;;5103707;27;20039;-70
2023/03/28 07:15:06;;;;;;;12.07;4.97;;;2.50;99.90;;;;;;5107708;27;20385;-70
2023/03/28 07:17:32;;;;;;;11.95;5.00;;;2.60;99.90;;;;;;5104926;27;20035;-69
2023/03/28 07:19:57;;;;;;;12.90;4.32;;;2.70;99.90;;;;;;5104184;27;20135;-70
2023/03/28 07:22:23;;;;;;;10.35;4.43;;;2.80;99.90;;;;;;5106640;27;20401;-70
2023/03/28 07:24:48;;;;;;;11.57;4.22;;;2.90;99.90;;;;;;5104775;27;20035;-69
2023/03/28 07:27:14;;;;;;;12.43;4.32;;;3.00;99.90;;;;;;5106485;27;20043;-70
2023/03/28 07:29:39;;;;;;;10.50;4.25;;;3.10;99.90;;;;;;5104201;28;20389;-70
2023/03/28 07:32:05;;;;;;;11.25;4.95;;;3.10;99.90;;;;;;5108595;27;20195;-70
2023/03/28 07:34:30;;;;;;;8.90;4.28;;;3.20;99.90;;;;;;5101797;27;20035;-70
2023/03/28 07:36:56;;;;;;;14.05;4.35;;;3.20;99.90;;;;;;5109001;27;20047;-71
2023/03/28 07:39:22;;;;;;;11.43;4.47;;;3.30;99.90;;;;;;5107167;27;20470;-70
2023/03/28 07:41:47;;;;;;;19.98;4.45;;;3.40;99.90;;;;;;5108367;27;20068;-70
2023/03/28 07:44:13;;;;;;;11.40;4.05;;;3.50;99.90;;;;;;5109957;27;20043;-69
2023/03/28 07:46:38;;;;;;;11.45;4.25;;;3.60;99.90;;;;;;5111206;27;20050;-70
2023/03/28 07:49:04;;;;;;;14.30;4.00;;;3.60;99.90;;;;;;5104630;27;20047;-69
2023/03/28 07:51:30;;;;;;;9.80;3.80;;;3.80;99.90;;;;;;5106350;27;20489;-70
2023/03/28 07:53:58;;;;;;;13.15;3.63;;;3.90;99.90;;;;;;5105609;27;20035;-69
2023/03/28 07:56:26;;;;;;;11.55;3.95;;;4.00;99.90;;;;;;5107186;27;20163;-69
2023/03/28 07:58:52;;;;;;;10.07;3.65;;;4.20;99.90;;;;;;5107620;27;20031;-69
2023/03/28 08:01:18;;;;;;;8.75;3.30;;;4.40;99.90;;;;;;5108417;27;20505;-67
2023/03/28 08:03:44;;;;;;;9.88;3.33;;;4.40;99.90;;;;;;5112613;27;20085;-69
2023/03/28 08:06:10;;;;;;;11.20;3.47;;;4.50;99.90;;;;;;5095710;27;20089;-69
2023/03/28 08:08:36;;;;;;;7.65;3.25;;;4.60;99.90;;;;;;5113098;27;20035;-69
2023/03/28 08:11:01;;;;;;;9.50;2.95;;;4.60;99.90;;;;;;5114182;27;20047;-68
2023/03/28 08:13:27;;;;;;;11.70;2.92;;;4.70;99.90;;;;;;5106349;27;20490;-68
2023/03/28 08:15:56;;;;;;;10.18;3.00;;;4.70;99.90;;;;;;5101008;28;20061;-68
2023/03/28 08:18:24;;;;;;;7.75;2.78;;;4.80;99.90;;;;;;5105261;27;20036;-67
2023/03/28 08:20:56;;;;;;;6.70;2.83;;;4.90;99.90;;;;;;5110854;27;20031;-67
2023/03/28 08:23:21;;;;;;;15.10;2.60;;;5.00;99.90;;;;;;5111464;27;20486;-67
2023/03/28 08:25:47;;;;;;;7.70;2.55;;;5.10;99.90;;;;;;5113078;27;20061;-66
2023/03/28 08:28:12;;;;;;;7.95;2.83;;;5.20;99.90;;;;;;5109949;27;20038;-67
2023/03/28 08:30:38;;;;;;;10.25;2.60;;;5.20;99.90;;;;;;5129124;27;20038;-69
2023/03/28 08:33:04;;;;;;;6.43;2.60;;;5.40;99.90;;;;;;5115509;27;20049;-66
2023/03/28 08:35:30;;;;;;;8.73;2.38;;;5.50;99.90;;;;;;5104135;27;20039;-67
2023/03/28 08:37:56;;;;;;;11.20;2.38;;;5.60;99.90;;;;;;5114891;27;20047;-67
2023/03/28 08:40:26;;;;;;;6.90;1.95;;;5.60;99.90;;;;;;5126746;27;20036;-66
2023/03/28 08:43:06;;;;;;;5.82;1.52;;;5.70;99.90;;;;;;5115995;27;20198;-66
2023/03/28 08:45:52;;;;;;;11.18;2.22;;;5.80;99.90;;;;;;5107800;28;20462;-66
2023/03/28 08:48:30;;;;;;;10.27;1.98;;;5.90;99.90;;;;;;5108951;27;20442;-67
2023/03/28 08:51:17;;;;;;;5.22;1.67;;;6.00;99.90;;;;;;5106004;27;20043;-66
2023/03/28 08:53:48;;;;;;;5.82;1.65;;;6.00;99.90;;;;;;5105701;27;20065;-66
2023/03/28 08:56:15;;;;;;;6.93;1.73;;;6.10;99.90;;;;;;5102238;28;20039;-65
2023/03/28 08:58:53;;;;;;;4.65;1.30;;;6.30;99.90;;;;;;5113015;27;20444;-65
2023/03/28 09:01:22;;;;;;;5.70;1.10;;;6.40;99.90;;;;;;5108927;27;20479;-65
2023/03/28 09:03:48;;;;;;;7.22;1.00;;;6.40;99.90;;;;;;5109923;27;20039;-66
2023/03/28 09:06:25;;;;;;;5.30;1.10;;;6.40;99.90;;;;;;5110498;27;20050;-66
2023/03/28 09:09:03;;;;;;;3.85;1.15;;;6.40;99.90;;;;;;5102321;27;20047;-66
2023/03/28 09:11:39;;;;;;;6.78;1.40;;;6.50;99.90;;;;;;5125309;27;20785;-66
2023/03/28 09:14:19;;;;;;;5.57;1.40;;;6.60;99.90;;;;;;5110948;27;20041;-66
2023/03/28 09:17:08;;;;;;;5.10;1.40;;;6.70;99.90;;;;;;5122801;27;20043;-66
2023/03/28 09:19:53;;;;;;;6.57;1.02;;;6.70;99.90;;;;;;5101288;27;20035;-67
2023/03/28 09:22:32;;;;;;;4.13;1.00;;;6.70;99.90;;;;;;5109036;27;20450;-66
2023/03/28 09:25:18;;;;;;;5.05;1.48;;;6.60;99.90;;;;;;5108079;27;20043;-66
2023/03/28 09:27:50;;;;;;;6.68;1.20;;;6.60;99.90;;;;;;5109593;27;20096;-67
2023/03/28 09:30:27;;;;;;;5.50;1.52;;;6.80;99.90;;;;;;5104609;27;20050;-67
2023/03/28 09:32:57;;;;;;;8.93;2.10;;;6.70;99.90;;;;;;5110172;27;20043;-68
2023/03/28 09:35:24;;;;;;;5.63;0.98;;;6.80;99.90;;;;;;5108605;27;20107;-67
2023/03/28 09:37:53;;;;;;;6.40;1.30;;;7.00;99.90;;;;;;5115067;27;20039;-67
2023/03/28 09:40:28;;;;;;;5.72;1.33;;;6.90;99.90;;;;;;5090885;27;20036;-67
2023/03/28 09:43:22;;;;;;;8.27;1.60;;;7.00;99.90;;;;;;5125894;27;20063;-67
2023/03/28 09:46:04;;;;;;;6.03;1.85;;;7.20;99.90;;;;;;5110188;27;20389;-67
2023/03/28 09:48:33;;;;;;;9.33;1.50;;;7.10;99.90;;;;;;5106369;28;20054;-67
2023/03/28 09:51:00;;;;;;;5.85;1.80;;;7.20;99.90;;;;;;5100652;28;20040;-66
2023/03/28 09:53:36;;;;;;;9.35;1.70;;;7.30;99.90;;;;;;5102919;28;20088;-66
2023/03/28 09:56:10;;;;;;;5.28;1.90;;;7.50;99.90;;;;;;5105274;27;20143;-66
2023/03/28 09:59:23;;;;;;;9.23;1.98;;;7.30;99.90;;;;;;5111321;27;20393;-65
2023/03/28 10:01:51;;;;;;;5.80;2.10;;;7.30;99.90;;;;;;5030721;28;20041;-65
2023/03/28 10:04:31;;;;;;;4.63;2.08;;;7.50;99.90;;;;;;5103269;27;20051;-66
2023/03/28 10:07:10;;;;;;;7.82;2.65;;;7.30;99.90;;;;;;5113221;27;20039;-66
2023/03/28 10:09:49;;;;;;;8.48;2.50;;;7.20;99.90;;;;;;5115597;27;20039;-66
2023/03/28 10:12:22;;;;;;;8.23;2.67;;;7.30;99.90;;;;;;5110734;27;20043;-66
2023/03/28 10:14:48;;;;;;;5.85;2.50;;;7.20;99.90;;;;;;5112325;27;20489;-66
2023/03/28 10:17:28;;;;;;;10.00;2.75;;;7.10;99.90;;;;;;5111813;27;20039;-67
2023/03/28 10:20:20;;;;;;;9.18;3.25;;;7.10;99.90;;;;;;5124020;27;20055;-66
2023/03/28 10:22:48;;;;;;;9.85;3.10;;;7.10;99.90;;;;;;5110235;27;20362;-67
2023/03/28 10:25:20;;;;;;;12.38;3.10;;;7.20;99.90;;;;;;5113128;27;20043;-68
2023/03/28 10:27:47;;;;;;;7.05;3.30;;;7.30;99.90;;;;;;5105630;27;20042;-66
2023/03/28 10:30:25;;;;;;;7.25;2.75;;;7.30;99.90;;;;;;5101969;27;20421;-68
2023/03/28 10:33:07;;;;;;;7.45;3.00;;;7.40;99.90;;;;;;5107430;27;20043;-68
2023/03/28 10:35:33;;;;;;;8.95;2.97;;;7.70;99.90;;;;;;5108850;27;20426;-65
2023/03/28 10:38:03;;;;;;;7.15;2.90;;;7.70;99.90;;;;;;5108390;27;20074;-66
2023/03/28 10:40:30;;;;;;;6.55;3.00;;;7.90;99.90;;;;;;5108226;27;20049;-66
2023/03/28 10:42:57;;;;;;;5.90;2.90;;;8.20;99.90;;;;;;5114100;27;20039;-67
2023/03/28 10:45:25;;;;;;;5.80;2.65;;;8.40;99.90;;;;;;5115673;27;20576;-66
2023/03/28 10:47:55;;;;;;;7.38;2.75;;;8.50;99.90;;;;;;5119579;27;20034;-68
2023/03/28 10:50:39;;;;;;;8.68;3.20;;;8.60;99.90;;;;;;5109768;27;20035;-66
2023/03/28 10:53:23;;;;;;;7.00;3.33;;;8.30;99.90;;;;;;5106356;27;20735;-67
2023/03/28 10:56:13;;;;;;;7.68;3.13;;;7.80;99.90;;;;;;5105714;27;20044;-67
2023/03/28 10:58:41;;;;;;;8.02;3.30;;;7.60;99.90;;;;;;5106747;27;20428;-65
2023/03/28 11:01:19;;;;;;;9.57;3.20;;;7.50;99.90;;;;;;5111319;27;20524;-65
2023/03/28 11:04:15;;;;;;;6.63;3.20;;;7.70;99.90;;;;;;5107302;27;20045;-66
2023/03/28 11:06:51;;;;;;;7.82;2.92;;;7.70;99.90;;;;;;5101110;27;20050;-66
2023/03/28 11:09:45;;;;;;;7.13;3.38;;;7.60;99.90;;;;;;5105437;27;20134;-65
2023/03/28 11:13:05;;;;;;;9.07;3.67;;;7.60;99.90;;;;;;5106408;27;20043;-66
2023/03/28 11:15:55;;;;;;;9.10;3.30;;;7.80;99.90;;;;;;5028789;28;20044;-66
2023/03/28 11:18:56;;;;;;;7.80;3.42;;;7.90;99.90;;;;;;5105292;27;20051;-66
2023/03/28 11:21:41;;;;;;;9.38;3.47;;;8.00;99.90;;;;;;5061318;27;20136;-68
2023/03/28 11:24:29;;;;;;;7.65;3.22;;;8.10;99.90;;;;;;5107968;27;20055;-66
2023/03/28 11:27:10;;;;;;;7.25;3.08;;;8.10;99.90;;;;;;5103672;27;20062;-65
2023/03/28 11:29:48;;;;;;;7.15;2.70;;;8.10;99.90;;;;;;5106436;27;20406;-66
2023/03/28 11:32:33;;;;;;;8.82;3.20;;;8.20;99.90;;;;;;5106696;27;20039;-66
2023/03/28 11:35:36;;;;;;;6.80;3.10;;;8.50;99.90;;;;;;5107532;27;20326;-67
2023/03/28 11:38:21;;;;;;;;;;;8.80;99.90;;;;;;5101315;27;20048;-67
2023/03/28 11:41:25;;;;;;;5.95;2.80;;;9.10;99.90;;;;;;5106764;27;19922;-67
2023/03/28 11:44:15;;;;;;;8.57;3.45;;;9.30;99.90;;;;;;5122619;27;20096;-66
2023/03/28 11:47:05;;;;;;;9.95;3.28;;;9.60;99.90;;;;;;5100520;27;20039;-67
2023/03/28 11:49:36;;;;;;;10.50;2.90;;;9.70;99.90;;;;;;5091568;27;20054;-67
2023/03/28 11:52:39;;;;;;;4.68;2.78;;;10.00;99.90;;;;;;5104503;27;20058;-67
2023/03/28 11:55:27;;;;;;;8.00;2.47;;;9.80;99.90;;;;;;5102427;27;20046;-65
2023/03/28 11:58:15;;;;;;;12.15;3.25;;;9.80;99.90;;;;;;5123702;27;20054;-67
2023/03/28 12:01:04;;;;;;;4.10;2.38;;;9.60;99.90;;;;;;5106391;27;20043;-65
2023/03/28 12:03:48;;;;;;;8.20;2.83;;;9.80;99.90;;;;;;5091296;27;20047;-66
2023/03/28 12:06:27;;;;;;;7.15;2.90;;;9.90;99.90;;;;;;5104622;27;20038;-67
2023/03/28 12:09:30;;;;;;;6.10;2.85;;;10.10;99.90;;;;;;5107982;27;20051;-67
2023/03/28 12:12:16;;;;;;;7.07;3.08;;;10.30;99.90;;;;;;5087383;27;20097;-67
2023/03/28 12:14:58;;;;;;;6.63;2.78;;;10.40;99.90;;;;;;5101608;27;20083;-66
2023/03/28 12:17:27;;;;;;;7.35;3.05;;;10.50;99.90;;;;;;5103017;27;20115;-68
2023/03/28 12:19:53;;;;;;;6.35;3.22;;;10.00;99.90;;;;;;5108576;27;20133;-66
2023/03/28 12:22:25;;;;;;;5.30;3.28;;;9.70;99.90;;;;;;5121356;27;20203;-66
2023/03/28 12:24:59;;;;;;;4.80;3.00;;;9.80;99.90;;;;;;5096240;27;20043;-66
2023/03/28 12:27:48;;;;;;;5.93;2.92;;;9.90;99.90;;;;;;5106756;27;20464;-66
2023/03/28 12:30:53;;;;;;;5.65;3.17;;;9.90;99.90;;;;;;5104245;27;20414;-67
2023/03/28 12:33:50;;;;;;;6.35;3.38;;;9.60;99.90;;;;;;5126584;27;20043;-66
2023/03/28 12:36:30;;;;;;;7.78;3.28;;;9.50;99.90;;;;;;5106817;27;20039;-66
2023/03/28 12:39:11;;;;;;;5.70;3.25;;;9.40;99.90;;;;;;5109358;27;20122;-66
2023/03/28 12:41:39;;;;;;;5.72;2.97;;;9.30;99.90;;;;;;5103923;27;20133;-67
2023/03/28 12:44:21;;;;;;;10.88;3.47;;;9.00;99.90;;;;;;5112557;27;20127;-66
2023/03/28 12:46:59;;;;;;;6.68;3.33;;;9.10;99.90;;;;;;5123246;27;20490;-67
2023/03/28 12:49:34;;;;;;;10.15;3.47;;;9.30;99.90;;;;;;5099694;27;20039;-67
2023/03/28 12:52:04;;;;;;;9.52;3.28;;;9.50;99.90;;;;;;5103874;27;20047;-68
2023/03/28 12:54:51;;;;;;;5.68;3.30;;;9.40;99.90;;;;;;5107116;27;20039;-67
2023/03/28 12:57:39;;;;;;;8.23;3.60;;;9.40;99.90;;;;;;5101163;27;20500;-67
2023/03/28 13:00:23;;;;;;;6.70;3.28;;;9.70;99.90;;;;;;5124071;27;20079;-67
2023/03/28 13:03:06;;;;;;;7.45;3.08;;;9.90;99.90;;;;;;5121236;27;20047;-67
2023/03/28 13:06:06;;;;;;;5.72;3.10;;;10.20;99.90;;;;;;5108899;27;20038;-68
2023/03/28 13:08:53;;;;;;;7.43;3.13;;;10.20;99.90;;;;;;5104877;27;20127;-67
2023/03/28 13:11:47;;;;;;;7.00;3.00;;;10.20;99.90;;;;;;5103075;27;20043;-66
2023/03/28 13:14:32;;;;;;;8.88;3.20;;;10.20;99.90;;;;;;5111158;27;20035;-66
2023/03/28 13:17:20;;;;;;;6.03;3.00;;;10.30;99.90;;;;;;5103881;27;20276;-67
2023/03/28 13:19:52;;;;;;;6.65;3.55;;;10.30;99.90;;;;;;5122409;27;20134;-67